Aérodrome :
LOGIN :

S'inscrire | Disclaimer

   EN    FR    IT 

 










Légende :    VFR   VFR Marginal   IFR   IFR Intensif   IFR Très Intensif
Visi : 
Plafond : 
>= 8 km
>= 3000ft
5 à 8 km
1000 à 3000 ft
1500m à 5 km
500 à 1000 ft
800 à 1500m
200 à 500 ft
< 800m
< 200 ft
Symboles :   Orages  Brouillard  Fortes neiges  Fortes précipitations  Vent > 20 kt
SIGMETs :   Divers  Orages  Givrage  Turbulence  Onde Orograph.  Cendres Volcan.






- Altitude de l'aérodrome : 584 ft


LFPV - Villacoublay Vélizy

DERNIER METAR :
  • 122030Z AUTO 24009KT 9999 FEW007 SCT017 BKN022 07/06 Q0985 BECMG BKN003

METARs EXPIRÉS :
  • 122000Z AUTO 22006KT 9999 SCT005 SCT013 BKN026 06/06 Q0985
  • 121930Z AUTO 21004KT 150V250 7000 DZ BKN003 OVC008 06/06 Q0986 BECMG 17015G25KT 3000 SHRA OVC004 SCT020TCU
  • 121900Z AUTO 16009KT 130V200 6000 -RA OVC003 06/05 Q0986 BECMG 17015G25KT 3000 SHRA OVC004 SCT020TCU
  • 121830Z AUTO 16011KT 5000 -RA BR OVC006/// ///TCU 06/05 Q0987 BECMG 17015G25KT SHRA OVC004 SCT020TCU
  • 121800Z AUTO 17014KT 9999 RA BKN010/// OVC016/// ///CB 06/05 Q0988 BECMG 17015G25KT 3000 SHRA OVC004 SCT020TCU

TAF TAF LFPV
Valide du 12 à 21h jusqu'au 13 à 21h UTC


122000Z 1221/1321 18008KT 9999 -DZ BKN003
BECMG 1301/1303 27015G30KT NSC
TEMPO 1301/1312 RA
TEMPO 1306/1311 27015G40KT



MET'MAP, la Météo Aéronautique d'un coup d'oeil ! - Copyright ORBIFLY Décembre 2007 - Disclaimer

ORBIFLY MET'MAP TEAM :

Programmation & Développement : Alexandra Zaïnal
Sur une idée originale de : Baudouin d'Aumeries
Assistance à la programmation : Marc-Olivier Méhu
Soutien technique & logistique : Manuel Goepfert

Contact : metmap@orbifly.com




SOURCES & CREDITS :

   NOAA